Pagrindinis puslapis
METAR-TAF:

METAR-TAF

Oro uostai :

Sam Mbakwe Airport

Owerri, Nigerija

platuma: 5-25-35N, ilguma: 7-12-20E, Aukštis: 114 m

Dabartinis oras

Ataskaita buvo paskelbta 6 valandos ir 4 minutes, ne 17:00 UTC
Ramus vėjas
Temperatūra 34°C
Drėgmė 60%
Slėgis 1008 hPa
Matomumas 10 km arba daugiau
Su prošvaistėmis ne aukštis 1300 ft

METAR: DNIM 151700Z 00000KT 9999 BKN013 34/25 Q1008

Laikas: 00:04 (23:04 UTC)


TAF: trūkstamas

Orai ataskaitas ir orų prognozės (METAR, TAF).

turimą stotys yra geltonos ir raudonos taškus žemėlapyje.

Perkelti pele per norėdami pamatyti stoties vardą.

Tada spustelėkite, norėdami matyti oro stebėjimo ir prognozės.

Norėdami pakeisti žemėlapį: spustelėkite ant žalios mygtukų su juodo kryžiaus žemyn,; žalią mygtuką su brūkšneliu, jei norite nutolinti; arba žalių rodyklių gretimoms žemėlapius.


METAR-TAF: